Newnan, Georgia
Current Conditions -  °F | °C
As of 10:15 AM on Monday 24 Nov 2014 (Local Time) from KCCO Reporting Station
Overcast Overcast  
Wind Chill: 68°   Ceiling: 1400
Heat Index: 68°   Visibility: 10mi
Dew Point: 63°   Wind: 8mph
Humidity: 84%   Direction: 240°WSW
Pressure: 29.83"   Gusts: NA
Location:  33.38°N, 84.8°W
Report Text: KCCO 241515Z AUTO 24007KT 200V270 10SM OVC014 20/17 A2983 RMK AO2 T02000173
Loading
Personal Weather Stations






























Interactive Weather Map New forecast layout! Learn more

10-Day Weather Forecast

Advertisements
Track Severe Weather on mobile